Terminal Aerodrome Forecast
Issued by NWS

Home | Current Version | Previous Version | Graphics & Text | Print | Product List | Glossary On
Versions: 1 2 3 4 5 6 7 8 9 10 11 12 13 14 15 16 17 18 19 20 21
000
FTUS43 KBIS 201135
TAFDIK
TAF
KDIK 201135Z 2012/2112 26015KT P6SM SCT250
     FM201700 28020G28KT P6SM BKN250
     FM202000 30023G32KT P6SM BKN200
     FM210000 32017KT P6SM BKN150=

USA.gov is the U.S. government's official web portal to all federal, state and local government web resources and services.